createdAt,value
2018-06-22T00:00:59.853Z,0
2018-06-22T00:01:59.611Z,0
2018-06-22T00:02:59.626Z,0
2018-06-22T00:03:59.642Z,0
2018-06-22T00:04:59.937Z,0
2018-06-22T00:05:59.790Z,0
2018-06-22T00:06:59.979Z,0
2018-06-22T00:08:00.000Z,0
2018-06-22T00:08:59.751Z,0
2018-06-22T00:10:00.056Z,0
2018-06-22T00:10:59.537Z,0
2018-06-22T00:11:59.817Z,0
2018-06-22T00:13:00.105Z,0
2018-06-22T00:14:00.167Z,0
2018-06-22T00:14:59.615Z,0
2018-06-22T00:16:00.174Z,0
2018-06-22T00:17:00.220Z,0
2018-06-22T00:17:59.693Z,0
2018-06-22T00:19:00.233Z,0
2018-06-22T00:19:59.991Z,0
2018-06-22T00:21:00.005Z,0
2018-06-22T00:22:00.296Z,0
2018-06-22T00:22:59.519Z,0
2018-06-22T00:24:00.350Z,0
2018-06-22T00:24:59.831Z,0
2018-06-22T00:26:00.396Z,0
2018-06-22T00:26:59.605Z,0
2018-06-22T00:28:00.163Z,0
2018-06-22T00:29:00.191Z,0
2018-06-22T00:30:00.202Z,0
2018-06-22T00:31:00.239Z,0
2018-06-22T00:32:00.515Z,0
2018-06-22T00:33:00.268Z,0
2018-06-22T00:34:00.286Z,0
2018-06-22T00:35:00.312Z,0
2018-06-22T00:36:00.065Z,0
2018-06-22T00:37:00.353Z,0
2018-06-22T00:38:00.648Z,0
2018-06-22T00:39:00.669Z,0
2018-06-22T00:40:00.406Z,0
2018-06-22T00:41:00.709Z,0
2018-06-22T00:42:00.452Z,0
2018-06-22T00:43:00.744Z,0
2018-06-22T00:44:00.501Z,0
2018-06-22T00:45:00.520Z,0
2018-06-22T00:46:00.823Z,0
2018-06-22T00:47:00.560Z,0
2018-06-22T00:48:00.580Z,0
2018-06-22T00:49:00.606Z,0
2018-06-22T00:50:00.369Z,0
2018-06-22T00:51:00.942Z,0
2018-06-22T00:52:00.672Z,0
2018-06-22T00:53:00.958Z,0
2018-06-22T00:54:00.712Z,0
2018-06-22T00:55:00.993Z,0
2018-06-22T00:56:00.532Z,0
2018-06-22T00:57:01.036Z,0
2018-06-22T00:58:01.075Z,0
2018-06-22T00:59:01.084Z,0
2018-06-22T01:00:00.573Z,0
2018-06-22T01:01:00.862Z,0
2018-06-22T01:02:01.228Z,0
2018-06-22T01:03:01.166Z,0
2018-06-22T01:04:00.918Z,0
2018-06-22T01:05:01.204Z,0
2018-06-22T01:06:01.260Z,0
2018-06-22T01:07:01.258Z,0
2018-06-22T01:08:01.275Z,0
2018-06-22T01:09:01.292Z,0
2018-06-22T01:10:01.309Z,0
2018-06-22T01:11:01.074Z,0
2018-06-22T01:12:01.360Z,0
2018-06-22T01:13:00.841Z,0
2018-06-22T01:14:00.866Z,0
2018-06-22T01:15:01.416Z,0
2018-06-22T01:16:00.933Z,0
2018-06-22T01:17:00.938Z,0
2018-06-22T01:18:01.231Z,0
2018-06-22T01:19:01.247Z,0
2018-06-22T01:20:01.261Z,0
2018-06-22T01:21:01.549Z,0
2018-06-22T01:22:01.589Z,0
2018-06-22T01:23:01.318Z,0
2018-06-22T01:24:01.185Z,0
2018-06-22T01:25:01.371Z,0
2018-06-22T01:26:01.377Z,0
2018-06-22T01:27:01.399Z,0
2018-06-22T01:28:01.520Z,0
2018-06-22T01:29:01.712Z,0
2018-06-22T01:30:01.223Z,0
2018-06-22T01:31:01.765Z,0
2018-06-22T01:32:01.239Z,0
2018-06-22T01:33:01.792Z,0
2018-06-22T01:34:01.812Z,0
2018-06-22T01:35:01.572Z,0
2018-06-22T01:36:01.350Z,0
2018-06-22T01:37:01.626Z,0
2018-06-22T01:38:01.632Z,0
2018-06-22T01:39:01.390Z,0
2018-06-22T01:40:01.950Z,0
2018-06-22T01:41:01.715Z,0
2018-06-22T01:42:01.981Z,0
2018-06-22T01:43:01.743Z,0
2018-06-22T01:44:02.021Z,0
2018-06-22T01:45:01.788Z,0
2018-06-22T01:46:01.803Z,0
2018-06-22T01:47:01.559Z,0
2018-06-22T01:48:01.889Z,0
2018-06-22T01:49:02.094Z,0
2018-06-22T01:50:01.355Z,0
2018-06-22T01:51:02.173Z,0
2018-06-22T01:52:02.188Z,0
2018-06-22T01:53:02.208Z,0
2018-06-22T01:54:02.226Z,0
2018-06-22T01:55:01.715Z,0
2018-06-22T01:56:02.322Z,0
2018-06-22T01:57:02.020Z,0
2018-06-22T01:58:02.317Z,0
2018-06-22T01:59:02.065Z,0
2018-06-22T02:00:01.821Z,0
2018-06-22T02:01:02.380Z,0
2018-06-22T02:02:02.394Z,0
2018-06-22T02:03:02.427Z,0
2018-06-22T02:04:02.166Z,0
2018-06-22T02:05:02.472Z,0
2018-06-22T02:06:02.718Z,0
2018-06-22T02:07:02.495Z,0
2018-06-22T02:08:02.018Z,0
2018-06-22T02:09:02.003Z,0
2018-06-22T02:10:02.565Z,0
2018-06-22T02:11:02.578Z,0
2018-06-22T02:12:02.331Z,0
2018-06-22T02:13:02.627Z,0
2018-06-22T02:14:02.114Z,0
2018-06-22T02:15:02.665Z,0
2018-06-22T02:16:02.153Z,0
2018-06-22T02:17:02.466Z,0
2018-06-22T02:18:02.512Z,0
2018-06-22T02:19:02.473Z,0
2018-06-22T02:20:02.781Z,0
2018-06-22T02:21:02.782Z,0
2018-06-22T02:22:02.597Z,0
2018-06-22T02:23:02.309Z,0
2018-06-22T02:24:02.894Z,0
2018-06-22T02:25:02.880Z,0
2018-06-22T02:26:02.378Z,0
2018-06-22T02:27:02.647Z,0
2018-06-22T02:28:02.656Z,0
2018-06-22T02:29:02.695Z,0
2018-06-22T02:30:02.969Z,0
2018-06-22T02:31:03.008Z,0
2018-06-22T02:32:02.768Z,0
2018-06-22T02:33:02.516Z,0
2018-06-22T02:34:02.548Z,0
2018-06-22T02:35:02.575Z,0
2018-06-22T02:36:02.325Z,0
2018-06-22T02:37:02.592Z,0
2018-06-22T02:38:02.888Z,0
2018-06-22T02:39:03.162Z,0
2018-06-22T02:40:03.202Z,0
2018-06-22T02:41:03.211Z,0
2018-06-22T02:42:02.968Z,0
2018-06-22T02:43:02.975Z,0
2018-06-22T02:44:03.008Z,0
2018-06-22T02:45:02.496Z,0
2018-06-22T02:46:03.047Z,0
2018-06-22T02:47:03.341Z,0
2018-06-22T02:48:03.358Z,0
2018-06-22T02:49:03.374Z,0
2018-06-22T02:50:03.403Z,0
2018-06-22T02:51:02.878Z,0
2018-06-22T02:52:03.425Z,0
2018-06-22T02:53:03.187Z,0
2018-06-22T02:54:03.533Z,0
2018-06-22T02:55:03.503Z,0
2018-06-22T02:56:03.241Z,0
2018-06-22T02:57:03.553Z,0
2018-06-22T02:58:03.283Z,0
2018-06-22T02:59:03.472Z,0
2018-06-22T03:00:03.564Z,0
2018-06-22T03:01:03.358Z,0
2018-06-22T03:02:03.135Z,0
2018-06-22T03:03:03.381Z,0
2018-06-22T03:04:03.163Z,0
2018-06-22T03:05:03.156Z,0
2018-06-22T03:06:03.452Z,0
2018-06-22T03:07:03.764Z,0
2018-06-22T03:08:03.241Z,0
2018-06-22T03:09:03.503Z,0
2018-06-22T03:10:03.017Z,0
2018-06-22T03:11:03.552Z,0
2018-06-22T03:12:03.579Z,0
2018-06-22T03:13:03.588Z,0
2018-06-22T03:14:03.605Z,0
2018-06-22T03:15:03.092Z,0
2018-06-22T03:16:03.668Z,0
2018-06-22T03:17:03.935Z,0
2018-06-22T03:18:03.707Z,0
2018-06-22T03:19:03.987Z,0
2018-06-22T03:20:04.004Z,0
2018-06-22T03:21:03.486Z,0
2018-06-22T03:22:03.513Z,0
2018-06-22T03:23:03.518Z,0
2018-06-22T03:24:03.561Z,0
2018-06-22T03:25:04.095Z,0
2018-06-22T03:26:03.844Z,0
2018-06-22T03:27:04.139Z,0
2018-06-22T03:28:03.891Z,0
2018-06-22T03:29:03.909Z,0
2018-06-22T03:30:04.213Z,0
2018-06-22T03:31:03.981Z,0
2018-06-22T03:32:03.924Z,0
2018-06-22T03:33:04.003Z,0
2018-06-22T03:34:03.739Z,0
2018-06-22T03:35:03.770Z,0
2018-06-22T03:36:04.322Z,0
2018-06-22T03:37:04.077Z,0
2018-06-22T03:38:04.090Z,0
2018-06-22T03:39:04.111Z,0
2018-06-22T03:40:04.140Z,0
2018-06-22T03:41:03.903Z,0
2018-06-22T03:42:04.174Z,0
2018-06-22T03:43:04.461Z,0
2018-06-22T03:44:04.211Z,0
2018-06-22T03:45:04.495Z,0
2018-06-22T03:46:04.540Z,0
2018-06-22T03:47:04.571Z,0
2018-06-22T03:48:04.586Z,0
2018-06-22T03:49:04.582Z,0
2018-06-22T03:50:04.334Z,0
2018-06-22T03:51:04.357Z,0
2018-06-22T03:52:04.374Z,0
2018-06-22T03:53:04.665Z,5
2018-06-22T03:54:04.680Z,5
2018-06-22T03:55:04.437Z,5
2018-06-22T03:56:04.188Z,5
2018-06-22T03:57:04.359Z,5
2018-06-22T03:58:04.499Z,5
2018-06-22T03:59:04.781Z,5
2018-06-22T04:00:04.277Z,5
2018-06-22T04:01:04.587Z,5
2018-06-22T04:02:04.580Z,5
2018-06-22T04:03:04.862Z,5
2018-06-22T04:04:04.616Z,5
2018-06-22T04:05:04.644Z,5
2018-06-22T04:06:04.664Z,0
2018-06-22T04:07:04.697Z,0
2018-06-22T04:08:04.765Z,0
2018-06-22T04:09:04.895Z,0
2018-06-22T04:10:04.790Z,5
2018-06-22T04:11:04.774Z,5
2018-06-22T04:12:05.067Z,5
2018-06-22T04:13:05.066Z,5
2018-06-22T04:14:04.019Z,5
2018-06-22T04:15:04.634Z,5
2018-06-22T04:16:04.883Z,0
2018-06-22T04:17:05.148Z,0
2018-06-22T04:18:05.162Z,0
2018-06-22T04:19:05.191Z,0
2018-06-22T04:20:05.220Z,5
2018-06-22T04:21:05.233Z,5
2018-06-22T04:22:05.261Z,5
2018-06-22T04:23:05.018Z,5
2018-06-22T04:24:05.294Z,5
2018-06-22T04:25:04.512Z,5
2018-06-22T04:26:05.063Z,5
2018-06-22T04:27:05.087Z,5
2018-06-22T04:28:05.101Z,10
2018-06-22T04:29:05.436Z,5
2018-06-22T04:30:05.429Z,5
2018-06-22T04:31:05.441Z,5
2018-06-22T04:32:04.916Z,5
2018-06-22T04:33:04.935Z,5
2018-06-22T04:34:05.516Z,5
2018-06-22T04:35:05.524Z,5
2018-06-22T04:36:05.012Z,5
2018-06-22T04:37:05.075Z,5
2018-06-22T04:38:05.067Z,5
2018-06-22T04:39:05.079Z,5
2018-06-22T04:40:05.443Z,5
2018-06-22T04:41:05.365Z,5
2018-06-22T04:42:05.129Z,5
2018-06-22T04:43:05.402Z,0
2018-06-22T04:44:05.695Z,5
2018-06-22T04:45:05.729Z,5
2018-06-22T04:46:05.472Z,5
2018-06-22T04:47:05.486Z,5
2018-06-22T04:48:05.242Z,5
2018-06-22T04:49:05.278Z,5
2018-06-22T04:50:05.567Z,5
2018-06-22T04:51:05.570Z,5
2018-06-22T04:52:05.892Z,5
2018-06-22T04:53:05.613Z,5
2018-06-22T04:54:05.659Z,10
2018-06-22T04:55:05.386Z,10
2018-06-22T04:56:05.704Z,10
2018-06-22T04:57:05.956Z,10
2018-06-22T04:58:05.983Z,10
2018-06-22T04:59:05.754Z,10
2018-06-22T05:00:06.019Z,10
2018-06-22T05:01:05.773Z,10
2018-06-22T05:02:06.059Z,10
2018-06-22T05:03:06.158Z,10
2018-06-22T05:04:05.588Z,10
2018-06-22T05:05:06.112Z,10
2018-06-22T05:06:05.618Z,10
2018-06-22T05:07:05.927Z,10
2018-06-22T05:08:05.910Z,10
2018-06-22T05:09:05.929Z,10
2018-06-22T05:10:05.691Z,10
2018-06-22T05:11:05.973Z,10
2018-06-22T05:12:05.741Z,5
2018-06-22T05:13:06.016Z,5
2018-06-22T05:14:06.308Z,10
2018-06-22T05:15:06.062Z,10
2018-06-22T05:16:05.540Z,10
2018-06-22T05:17:06.093Z,10
2018-06-22T05:18:05.881Z,10
2018-06-22T05:19:06.168Z,10
2018-06-22T05:20:05.889Z,10
2018-06-22T05:21:06.182Z,10
2018-06-22T05:22:05.667Z,10
2018-06-22T05:23:05.945Z,10
2018-06-22T05:24:06.242Z,10
2018-06-22T05:25:05.717Z,10
2018-06-22T05:26:06.024Z,10
2018-06-22T05:27:06.311Z,10
2018-06-22T05:28:06.349Z,10
2018-06-22T05:29:06.075Z,10
2018-06-22T05:30:06.351Z,10
2018-06-22T05:31:06.669Z,15
2018-06-22T05:32:06.404Z,15
2018-06-22T05:33:06.425Z,15
2018-06-22T05:34:06.710Z,15
2018-06-22T05:35:06.726Z,20
2018-06-22T05:36:05.980Z,20
2018-06-22T05:37:06.249Z,20
2018-06-22T05:38:06.787Z,20
2018-06-22T05:39:06.805Z,15
2018-06-22T05:40:06.289Z,15
2018-06-22T05:41:06.314Z,15
2018-06-22T05:42:06.356Z,15
2018-06-22T05:43:06.617Z,20
2018-06-22T05:44:06.644Z,20
2018-06-22T05:45:06.681Z,15
2018-06-22T05:46:06.943Z,15
2018-06-22T05:47:06.732Z,20
2018-06-22T05:48:06.473Z,20
2018-06-22T05:49:06.481Z,15
2018-06-22T05:50:06.765Z,20
2018-06-22T05:51:07.369Z,20
2018-06-22T05:52:06.798Z,25
2018-06-22T05:53:06.547Z,25
2018-06-22T05:54:06.915Z,20
2018-06-22T05:55:07.131Z,20
2018-06-22T05:56:06.877Z,25
2018-06-22T05:57:07.178Z,25
2018-06-22T05:58:07.191Z,25
2018-06-22T05:59:06.938Z,25
2018-06-22T06:00:06.701Z,25
2018-06-22T06:01:06.456Z,25
2018-06-22T06:02:07.009Z,25
2018-06-22T06:03:07.292Z,20
2018-06-22T06:04:07.045Z,20
2018-06-22T06:05:07.063Z,20
2018-06-22T06:06:06.551Z,20
2018-06-22T06:07:07.114Z,20
2018-06-22T06:08:06.853Z,20
2018-06-22T06:09:07.167Z,25
2018-06-22T06:10:06.942Z,20
2018-06-22T06:11:07.535Z,20
2018-06-22T06:12:07.224Z,25
2018-06-22T06:13:06.959Z,15
2018-06-22T06:14:06.984Z,15
2018-06-22T06:15:07.564Z,20
2018-06-22T06:16:07.041Z,20
2018-06-22T06:17:07.052Z,20
2018-06-22T06:18:07.326Z,20
2018-06-22T06:19:07.614Z,15
2018-06-22T06:20:07.561Z,15
2018-06-22T06:21:07.129Z,15
2018-06-22T06:22:07.452Z,20
2018-06-22T06:23:07.433Z,20
2018-06-22T06:24:07.457Z,20
2018-06-22T06:25:07.473Z,20
2018-06-22T06:26:07.484Z,20
2018-06-22T06:27:07.237Z,25
2018-06-22T06:28:07.797Z,25
2018-06-22T06:29:07.018Z,30
2018-06-22T06:30:07.868Z,25
2018-06-22T06:31:07.081Z,25
2018-06-22T06:32:07.354Z,30
2018-06-22T06:33:07.361Z,30
2018-06-22T06:34:07.395Z,25
2018-06-22T06:35:07.934Z,30
2018-06-22T06:36:07.424Z,25
2018-06-22T06:37:07.994Z,20
2018-06-22T06:38:08.012Z,25
2018-06-22T06:39:07.484Z,25
2018-06-22T06:40:07.515Z,30
2018-06-22T06:41:07.529Z,30
2018-06-22T06:42:07.300Z,30
2018-06-22T06:43:08.103Z,25
2018-06-22T06:44:07.605Z,25
2018-06-22T06:45:07.356Z,30
2018-06-22T06:46:07.917Z,30
2018-06-22T06:47:07.917Z,35
2018-06-22T06:48:08.226Z,40
2018-06-22T06:49:08.250Z,40
2018-06-22T06:50:07.714Z,40
2018-06-22T06:51:08.270Z,40
2018-06-22T06:52:08.035Z,35
2018-06-22T06:53:08.041Z,30
2018-06-22T06:54:07.816Z,30
2018-06-22T06:55:08.083Z,25
2018-06-22T06:56:07.834Z,25
2018-06-22T06:57:08.117Z,25
2018-06-22T06:58:08.157Z,30
2018-06-22T06:59:08.215Z,35
2018-06-22T07:00:08.195Z,35
2018-06-22T07:01:08.481Z,35
2018-06-22T07:02:07.958Z,40
2018-06-22T07:03:07.989Z,40
2018-06-22T07:04:08.274Z,30
2018-06-22T07:05:08.289Z,25
2018-06-22T07:06:08.594Z,30
2018-06-22T07:07:08.363Z,25
2018-06-22T07:08:08.624Z,20
2018-06-22T07:09:08.394Z,20
2018-06-22T07:10:08.137Z,20
2018-06-22T07:11:08.688Z,20
2018-06-22T07:12:08.170Z,25
2018-06-22T07:13:08.448Z,30
2018-06-22T07:14:08.226Z,30
2018-06-22T07:15:08.513Z,35
2018-06-22T07:16:08.532Z,35
2018-06-22T07:17:08.296Z,35
2018-06-22T07:18:08.026Z,35
2018-06-22T07:19:08.575Z,35
2018-06-22T07:20:08.880Z,35
2018-06-22T07:21:08.892Z,35
2018-06-22T07:22:08.656Z,35
2018-06-22T07:23:08.389Z,30
2018-06-22T07:24:08.431Z,30
2018-06-22T07:25:08.441Z,30
2018-06-22T07:26:08.728Z,30
2018-06-22T07:27:08.230Z,30
2018-06-22T07:28:08.764Z,30
2018-06-22T07:29:09.046Z,25
2018-06-22T07:30:08.817Z,30
2018-06-22T07:31:08.834Z,25
2018-06-22T07:32:09.121Z,30
2018-06-22T07:33:08.860Z,30
2018-06-22T07:34:08.886Z,30
2018-06-22T07:35:09.183Z,30
2018-06-22T07:36:09.532Z,30
2018-06-22T07:37:08.959Z,30
2018-06-22T07:38:08.977Z,30
2018-06-22T07:39:09.260Z,30
2018-06-22T07:40:09.015Z,35
2018-06-22T07:41:08.567Z,35
2018-06-22T07:42:08.787Z,35
2018-06-22T07:43:09.077Z,35
2018-06-22T07:44:09.341Z,35
2018-06-22T07:45:09.388Z,35
2018-06-22T07:46:08.887Z,40
2018-06-22T07:47:09.163Z,40
2018-06-22T07:48:08.642Z,45
2018-06-22T07:49:08.930Z,40
2018-06-22T07:50:09.486Z,40
2018-06-22T07:51:08.978Z,35
2018-06-22T07:52:09.540Z,35
2018-06-22T07:53:09.279Z,35
2018-06-22T07:54:09.569Z,30
2018-06-22T07:55:09.539Z,30
2018-06-22T07:56:09.612Z,30
2018-06-22T07:57:09.102Z,25
2018-06-22T07:58:09.759Z,30
2018-06-22T07:59:08.863Z,30
2018-06-22T08:00:08.957Z,25
2018-06-22T08:01:09.541Z,25
2018-06-22T08:02:09.519Z,25
2018-06-22T08:03:09.752Z,20
2018-06-22T08:04:09.511Z,20
2018-06-22T08:05:09.522Z,20
2018-06-22T08:06:09.576Z,20
2018-06-22T08:07:09.590Z,15
2018-06-22T08:08:09.849Z,20
2018-06-22T08:09:09.072Z,20
2018-06-22T08:10:09.901Z,25
2018-06-22T08:11:09.378Z,20
2018-06-22T08:12:09.685Z,30
2018-06-22T08:13:09.688Z,40
2018-06-22T08:14:09.713Z,45
2018-06-22T08:15:09.730Z,40
2018-06-22T08:16:09.759Z,35
2018-06-22T08:17:09.517Z,35
2018-06-22T08:18:09.808Z,35
2018-06-22T08:19:09.874Z,35
2018-06-22T08:20:09.614Z,45
2018-06-22T08:21:09.585Z,35
2018-06-22T08:22:09.873Z,30
2018-06-22T08:23:09.899Z,30
2018-06-22T08:24:10.181Z,35
2018-06-22T08:25:09.997Z,25
2018-06-22T08:26:09.958Z,25
2018-06-22T08:27:09.973Z,35
2018-06-22T08:28:10.028Z,35
2018-06-22T08:29:09.759Z,40
2018-06-22T08:30:10.058Z,45
2018-06-22T08:31:09.792Z,55
2018-06-22T08:32:09.828Z,55
2018-06-22T08:33:10.104Z,60
2018-06-22T08:34:09.613Z,55
2018-06-22T08:35:10.300Z,55
2018-06-22T08:36:10.200Z,55
2018-06-22T08:37:10.183Z,55
2018-06-22T08:38:10.463Z,50
2018-06-22T08:39:10.544Z,50
2018-06-22T08:40:10.256Z,50
2018-06-22T08:41:10.264Z,55
2018-06-22T08:42:10.214Z,50
2018-06-22T08:43:10.329Z,45
2018-06-22T08:44:10.593Z,60
2018-06-22T08:45:10.622Z,55
2018-06-22T08:46:09.860Z,50
2018-06-22T08:47:10.656Z,55
2018-06-22T08:48:10.150Z,55
2018-06-22T08:49:10.568Z,45
2018-06-22T08:50:09.927Z,60
2018-06-22T08:51:10.751Z,40
2018-06-22T08:52:10.765Z,20
2018-06-22T08:53:10.797Z,25
2018-06-22T08:54:10.279Z,20
2018-06-22T08:55:10.292Z,30
2018-06-22T08:56:10.394Z,55
2018-06-22T08:57:10.059Z,50
2018-06-22T08:58:10.347Z,65
2018-06-22T08:59:10.653Z,65
2018-06-22T09:00:10.929Z,55
2018-06-22T09:01:10.709Z,35
2018-06-22T09:02:10.186Z,50
2018-06-22T09:03:10.502Z,55
2018-06-22T09:04:09.950Z,30
2018-06-22T09:05:10.505Z,40
2018-06-22T09:06:10.792Z,50
2018-06-22T09:07:10.542Z,55
2018-06-22T09:08:10.916Z,60
2018-06-22T09:09:11.122Z,60
2018-06-22T09:10:11.159Z,60
2018-06-22T09:11:11.184Z,60
2018-06-22T09:12:10.658Z,65
2018-06-22T09:13:10.932Z,65
2018-06-22T09:14:10.411Z,65
2018-06-22T09:15:11.245Z,65
2018-06-22T09:16:10.983Z,55
2018-06-22T09:17:11.016Z,65
2018-06-22T09:18:11.068Z,65
2018-06-22T09:19:11.315Z,65
2018-06-22T09:20:11.356Z,60
2018-06-22T09:21:10.832Z,45
2018-06-22T09:22:10.851Z,60
2018-06-22T09:23:11.182Z,60
2018-06-22T09:24:10.887Z,50
2018-06-22T09:25:10.378Z,45
2018-06-22T09:26:10.931Z,55
2018-06-22T09:27:10.696Z,55
2018-06-22T09:28:11.300Z,55
2018-06-22T09:29:10.991Z,50
2018-06-22T09:30:11.019Z,45
2018-06-22T09:31:11.590Z,50
2018-06-22T09:32:11.332Z,55
2018-06-22T09:33:11.353Z,55
2018-06-22T09:34:11.369Z,55
2018-06-22T09:35:11.379Z,50
2018-06-22T09:36:11.693Z,35
2018-06-22T09:37:11.251Z,45
2018-06-22T09:38:11.456Z,45
2018-06-22T09:39:11.464Z,45
2018-06-22T09:40:11.485Z,50
2018-06-22T09:41:11.508Z,50
2018-06-22T09:42:11.274Z,55
2018-06-22T09:43:11.829Z,60
2018-06-22T09:44:11.588Z,55
2018-06-22T09:45:11.577Z,40
2018-06-22T09:46:11.614Z,40
2018-06-22T09:47:11.904Z,50
2018-06-22T09:48:11.669Z,35
2018-06-22T09:49:11.984Z,15
2018-06-22T09:50:11.973Z,20
2018-06-22T09:51:11.731Z,25
2018-06-22T09:52:11.793Z,25
2018-06-22T09:53:12.000Z,25
2018-06-22T09:54:12.054Z,30
2018-06-22T09:55:12.103Z,25
2018-06-22T09:56:11.305Z,35
2018-06-22T09:57:11.586Z,35
2018-06-22T09:58:12.150Z,35
2018-06-22T09:59:12.174Z,40
2018-06-22T10:00:12.183Z,60
2018-06-22T10:01:11.401Z,60
2018-06-22T10:02:11.753Z,50
2018-06-22T10:03:12.297Z,40
2018-06-22T10:04:11.749Z,40
2018-06-22T10:05:12.289Z,25
2018-06-22T10:06:12.417Z,15
2018-06-22T10:07:12.061Z,25
2018-06-22T10:08:12.199Z,30
2018-06-22T10:09:11.832Z,30
2018-06-22T10:10:11.862Z,25
2018-06-22T10:11:12.145Z,30
2018-06-22T10:12:12.438Z,45
2018-06-22T10:13:12.364Z,60
2018-06-22T10:14:11.942Z,45
2018-06-22T10:15:12.503Z,45
2018-06-22T10:16:12.245Z,50
2018-06-22T10:17:12.003Z,55
2018-06-22T10:18:12.299Z,65
2018-06-22T10:19:12.307Z,65
2018-06-22T10:20:12.605Z,75
2018-06-22T10:21:12.351Z,80
2018-06-22T10:22:11.616Z,80
2018-06-22T10:23:11.863Z,85
2018-06-22T10:24:12.198Z,80
2018-06-22T10:25:12.456Z,50
2018-06-22T10:26:12.739Z,35
2018-06-22T10:27:12.723Z,30
2018-06-22T10:28:12.502Z,30
2018-06-22T10:29:12.258Z,20
2018-06-22T10:30:12.301Z,10
2018-06-22T10:31:12.294Z,10
2018-06-22T10:32:12.319Z,10
2018-06-22T10:33:12.611Z,10
2018-06-22T10:34:12.998Z,15
2018-06-22T10:35:12.930Z,10
2018-06-22T10:36:12.668Z,15
2018-06-22T10:37:12.960Z,15
2018-06-22T10:38:12.978Z,15
2018-06-22T10:39:12.833Z,35
2018-06-22T10:40:12.489Z,45
2018-06-22T10:41:12.528Z,60
2018-06-22T10:42:12.538Z,60
2018-06-22T10:43:12.551Z,65
2018-06-22T10:44:12.583Z,65
2018-06-22T10:45:13.145Z,65
2018-06-22T10:46:13.570Z,70
2018-06-22T10:47:12.636Z,75
2018-06-22T10:48:12.936Z,65
2018-06-22T10:49:12.947Z,45
2018-06-22T10:50:12.187Z,35
2018-06-22T10:51:13.330Z,30
2018-06-22T10:52:13.026Z,30
2018-06-22T10:53:13.304Z,40
2018-06-22T10:54:13.325Z,60
2018-06-22T10:55:13.355Z,75
2018-06-22T10:56:13.103Z,80
2018-06-22T10:57:12.851Z,80
2018-06-22T10:58:13.467Z,90
2018-06-22T10:59:13.366Z,75
2018-06-22T11:00:12.916Z,65
2018-06-22T11:01:12.669Z,45
2018-06-22T11:02:13.226Z,55
2018-06-22T11:03:13.265Z,55
2018-06-22T11:04:13.543Z,55
2018-06-22T11:05:13.302Z,55
2018-06-22T11:06:13.051Z,50
2018-06-22T11:07:13.345Z,55
2018-06-22T11:08:13.091Z,55
2018-06-22T11:09:13.110Z,50
2018-06-22T11:10:13.398Z,55
2018-06-22T11:11:13.687Z,65
2018-06-22T11:12:13.712Z,65
2018-06-22T11:13:13.481Z,55
2018-06-22T11:14:13.654Z,45
2018-06-22T11:15:13.772Z,80
2018-06-22T11:16:13.798Z,120
2018-06-22T11:17:13.777Z,85
2018-06-22T11:18:13.639Z,80
2018-06-22T11:19:13.063Z,75
2018-06-22T11:20:13.892Z,50
2018-06-22T11:21:13.750Z,65
2018-06-22T11:22:13.388Z,85
2018-06-22T11:23:13.684Z,80
2018-06-22T11:24:13.772Z,80
2018-06-22T11:25:13.730Z,75
2018-06-22T11:26:13.491Z,60
2018-06-22T11:27:13.506Z,70
2018-06-22T11:28:13.796Z,80
2018-06-22T11:29:14.073Z,95
2018-06-22T11:30:13.572Z,95
2018-06-22T11:31:13.863Z,85
2018-06-22T11:32:14.066Z,80
2018-06-22T11:33:13.634Z,80
2018-06-22T11:34:13.653Z,80
2018-06-22T11:35:13.949Z,75
2018-06-22T11:36:14.230Z,55
2018-06-22T11:37:13.987Z,50
2018-06-22T11:38:13.739Z,55
2018-06-22T11:39:14.044Z,60
2018-06-22T11:40:14.324Z,75
2018-06-22T11:41:14.374Z,85
2018-06-22T11:42:14.101Z,85
2018-06-22T11:43:14.402Z,85
2018-06-22T11:44:13.615Z,100
2018-06-22T11:45:14.445Z,100
2018-06-22T11:46:14.457Z,90
2018-06-22T11:47:14.481Z,80
2018-06-22T11:48:14.502Z,75
2018-06-22T11:49:14.263Z,75
2018-06-22T11:50:14.015Z,85
2018-06-22T11:51:14.585Z,85
2018-06-22T11:52:14.596Z,95
2018-06-22T11:53:14.075Z,85
2018-06-22T11:54:14.097Z,85
2018-06-22T11:55:14.117Z,90
2018-06-22T11:56:14.700Z,100
2018-06-22T11:57:14.436Z,105
2018-06-22T11:58:14.455Z,100
2018-06-22T11:59:15.143Z,95
2018-06-22T12:00:14.507Z,100
2018-06-22T12:01:14.276Z,105
2018-06-22T12:02:14.830Z,90
2018-06-22T12:03:14.313Z,90
2018-06-22T12:04:14.328Z,85
2018-06-22T12:05:14.365Z,80
2018-06-22T12:06:14.637Z,80
2018-06-22T12:07:14.410Z,85
2018-06-22T12:08:14.954Z,85
2018-06-22T12:09:14.981Z,85
2018-06-22T12:10:14.741Z,85
2018-06-22T12:11:15.030Z,80
2018-06-22T12:12:14.793Z,75
2018-06-22T12:13:14.807Z,75
2018-06-22T12:14:14.824Z,80
2018-06-22T12:15:15.151Z,90
2018-06-22T12:16:14.068Z,105
2018-06-22T12:17:15.173Z,130
2018-06-22T12:18:14.920Z,105
2018-06-22T12:19:15.698Z,115
2018-06-22T12:20:14.969Z,120
2018-06-22T12:21:14.733Z,75
2018-06-22T12:22:14.745Z,45
2018-06-22T12:23:15.310Z,35
2018-06-22T12:24:14.784Z,60
2018-06-22T12:25:15.448Z,105
2018-06-22T12:26:15.102Z,95
2018-06-22T12:27:15.401Z,110
2018-06-22T12:28:15.155Z,95
2018-06-22T12:29:15.179Z,85
2018-06-22T12:30:15.199Z,90
2018-06-22T12:31:14.757Z,65
2018-06-22T12:32:14.975Z,75
2018-06-22T12:33:15.207Z,135
2018-06-22T12:34:15.290Z,145
2018-06-22T12:35:15.319Z,95
2018-06-22T12:36:15.364Z,130
2018-06-22T12:37:15.641Z,75
2018-06-22T12:38:15.388Z,80
2018-06-22T12:39:15.420Z,105
2018-06-22T12:40:15.447Z,85
2018-06-22T12:41:15.735Z,85
2018-06-22T12:42:15.483Z,75
2018-06-22T12:43:15.248Z,65
2018-06-22T12:44:15.532Z,60
2018-06-22T12:45:15.419Z,80
2018-06-22T12:46:15.581Z,130
2018-06-22T12:47:15.339Z,135
2018-06-22T12:48:15.629Z,100
2018-06-22T12:49:15.920Z,115
2018-06-22T12:50:15.443Z,105
2018-06-22T12:51:15.969Z,65
2018-06-22T12:52:15.993Z,115
2018-06-22T12:53:15.751Z,115
2018-06-22T12:54:15.797Z,90
2018-06-22T12:55:15.793Z,70
2018-06-22T12:56:16.158Z,90
2018-06-22T12:57:15.844Z,95
2018-06-22T12:58:16.153Z,85
2018-06-22T12:59:15.907Z,40
2018-06-22T13:00:16.189Z,35
2018-06-22T13:01:15.675Z,60
2018-06-22T13:02:16.237Z,65
2018-06-22T13:03:15.720Z,75
2018-06-22T13:04:16.109Z,80
2018-06-22T13:05:16.052Z,80
2018-06-22T13:06:16.341Z,85
2018-06-22T13:07:16.091Z,35
2018-06-22T13:08:15.854Z,20
2018-06-22T13:09:16.057Z,20
2018-06-22T13:10:16.168Z,15
2018-06-22T13:11:16.643Z,10
2018-06-22T13:12:15.950Z,10
2018-06-22T13:13:16.505Z,15
2018-06-22T13:14:16.268Z,20
2018-06-22T13:15:16.562Z,25
2018-06-22T13:16:16.046Z,20
2018-06-22T13:17:16.896Z,15
2018-06-22T13:18:16.122Z,15
2018-06-22T13:19:16.399Z,15
2018-06-22T13:20:15.883Z,20
2018-06-22T13:21:16.713Z,25
2018-06-22T13:22:16.730Z,20
2018-06-22T13:23:17.024Z,25
2018-06-22T13:24:16.052Z,30
2018-06-22T13:25:16.004Z,35
2018-06-22T13:26:16.366Z,40
2018-06-22T13:27:16.337Z,40
2018-06-22T13:28:16.611Z,30
2018-06-22T13:29:16.932Z,35
2018-06-22T13:30:16.938Z,50
2018-06-22T13:31:16.751Z,80
2018-06-22T13:32:16.714Z,95
2018-06-22T13:33:16.665Z,95
2018-06-22T13:34:17.030Z,90
2018-06-22T13:35:17.059Z,100
2018-06-22T13:36:17.076Z,80
2018-06-22T13:37:17.110Z,75
2018-06-22T13:38:16.857Z,65
2018-06-22T13:39:16.888Z,45
2018-06-22T13:40:17.196Z,75
2018-06-22T13:41:16.399Z,95
2018-06-22T13:42:16.966Z,120
2018-06-22T13:43:16.997Z,115
2018-06-22T13:44:17.282Z,70
2018-06-22T13:45:17.035Z,80
2018-06-22T13:46:17.322Z,60
2018-06-22T13:47:17.353Z,75
2018-06-22T13:48:17.384Z,70
2018-06-22T13:49:17.400Z,50
2018-06-22T13:50:17.784Z,60
2018-06-22T13:51:16.926Z,85
2018-06-22T13:52:17.487Z,105
2018-06-22T13:53:17.267Z,100
2018-06-22T13:54:17.537Z,110
2018-06-22T13:55:17.550Z,85
2018-06-22T13:56:17.305Z,75
2018-06-22T13:57:17.938Z,70
2018-06-22T13:58:17.358Z,55
2018-06-22T13:59:17.653Z,60
2018-06-22T14:00:17.684Z,75
2018-06-22T14:01:17.164Z,80
2018-06-22T14:02:17.730Z,50
2018-06-22T14:03:17.232Z,35
2018-06-22T14:04:17.783Z,35
2018-06-22T14:05:17.820Z,35
2018-06-22T14:06:17.849Z,35
2018-06-22T14:07:17.592Z,35
2018-06-22T14:08:17.876Z,40
2018-06-22T14:09:17.836Z,65
2018-06-22T14:10:17.939Z,75
2018-06-22T14:11:17.708Z,80
2018-06-22T14:12:17.983Z,85
2018-06-22T14:13:18.009Z,55
2018-06-22T14:14:18.043Z,40
2018-06-22T14:15:17.790Z,45
2018-06-22T14:16:17.823Z,65
2018-06-22T14:17:18.109Z,55
2018-06-22T14:18:17.869Z,55
2018-06-22T14:19:18.181Z,60
2018-06-22T14:20:18.128Z,65
2018-06-22T14:21:18.064Z,70
2018-06-22T14:22:17.441Z,70
2018-06-22T14:23:17.997Z,40
2018-06-22T14:24:18.020Z,85
2018-06-22T14:25:18.323Z,40